Sillery, Canada
Current Conditions -  °F | °C
As of 8:00 AM on Wednesday 26 Nov 2014 (Local Time) from CYQB Reporting Station
Broken Clouds Broken Clouds  
Wind Chill: 30°   Ceiling: 18000
Heat Index: 30°   Visibility: 20mi
Dew Point: 25°   Wind: 3mph
Humidity: 80%   Direction: 250°WSW
Pressure: 30.21"   Gusts: NA
Location:  46.78°N, 71.26°W
Report Text: CYQB 261300Z 25003KT 20SM FEW030 BKN180 BKN220 M01/M04 A3021 RMK SC2AC3CI2 SLP235
Loading
Personal Weather Stations






























Interactive Weather Map New forecast layout! Learn more

10-Day Weather Forecast

Advertisements
Track Severe Weather on mobile